• Join FlightAware (Why Join?)
  • Login
  • US Flag 
06:47PM EDT


 

Airport Tracker/Info


-or-


 

Live Flight TrackerFlight Track Log ✈ SWA16 ✈ 26-Apr-2013 ✈ KDAL - KAMA

Flight Track Log - Related Links

Times and Time Zones

All times are in EDT time to prevent confusion due to time zone crossing. See the SWA16 flight status page for this flight to view local times or setup timezone preferences in your user account.

Time Position Orientation Groundspeed Altitude Reporting Facility
EDT Latitude Longitude Course Direction KTS MPH feet Rate Location/Type
12:42PM 32.7833 -96.7667 140° Southeast 204 235 4,500  Level Dallas / Fort Worth TRACON
12:43PM 32.7333 -96.8000 209° Southwest 189 217 8,100 2,700 Climbing Dallas / Fort Worth TRACON
12:44PM 32.6833 -96.8167 196° South 224 258 10,000 1,620 Climbing Dallas / Fort Worth TRACON
12:45PM 32.6500 -96.9000 245° Southwest 320 368 11,200 2,640 Climbing Dallas / Fort Worth TRACON
12:47PM 32.7494 -97.1219 298° West 387 445 18,200 3,180 Climbing Fort Worth Center
12:48PM 32.8061 -97.2231 304° West 387 445 21,300 2,700 Climbing Fort Worth Center
12:49PM 32.8583 -97.3219 302° West 382 440 23,700 2,280 Climbing Fort Worth Center
12:50PM 32.9272 -97.4406 305° West 395 455 25,900 1,980 Climbing Fort Worth Center
12:51PM 32.9897 -97.5547 303° West 407 468 27,700 1,740 Climbing Fort Worth Center
12:52PM 33.0564 -97.6736 304° West 419 482 29,400 2,100 Climbing Fort Worth Center
12:53PM 33.1103 -97.7953 298° West 425 489 32,000 2,520 Climbing Fort Worth Center
12:54PM 33.1497 -97.9197 291° West 410 472 34,500 2,280 Climbing Fort Worth Center
12:55PM 33.1886 -98.0389 291° West 391 450 36,600 1,740 Climbing Fort Worth Center
12:56PM 33.2425 -98.1461 301° West 373 429 38,000 660 Climbing Fort Worth Center
12:57PM 33.2961 -98.2336 306° West 379 436 38,000  Level Fort Worth Center
12:58PM 33.3664 -98.3486 306° West 379 436 38,000  Level Fort Worth Center
12:59PM 33.4219 -98.4414 306° West 384 442 38,000  Level Fort Worth Center
01:00PM 33.4836 -98.5417 306° West 384 442 38,000  Level Fort Worth Center
01:01PM 33.5475 -98.6447 307° West 384 442 38,000  Level Fort Worth Center
01:02PM 33.6111 -98.7503 306° West 396 456 38,000  Level Fort Worth Center
01:03PM 33.6703 -98.8561 304° West 384 442 38,000  Level Fort Worth Center
01:04PM 33.7419 -98.9697 307° West 384 442 38,000  Level Fort Worth Center
01:05PM 33.7992 -99.0731 304° West 383 441 38,000  Level Fort Worth Center
01:06PM 33.8500 -99.1642 304° West 383 441 38,000  Level Fort Worth Center
01:07PM 33.9111 -99.2731 304° West 382 440 38,000  Level Fort Worth Center
01:08PM 33.9719 -99.3819 304° West 382 440 38,000  Level Fort Worth Center
01:09PM 34.0308 -99.4836 305° West 382 440 38,000  Level Fort Worth Center
01:10PM 34.0917 -99.5928 304° West 387 445 38,000  Level Fort Worth Center
01:11PM 34.1522 -99.7022 304° West 387 445 38,000  Level Fort Worth Center
01:13PM 34.2603 -99.8994 304° West 388 447 38,000  Level Albuquerque Center
01:14PM 34.3208 -100.0083 304° West 388 447 38,000 -1,140 Level Albuquerque Center
01:15PM 34.3867 -100.1250 304° West 385 443 35,700 -2,520 Descending Albuquerque Center
01:16PM 34.4450 -100.2317 304° West 382 440 32,800 -2,520 Descending Albuquerque Center
01:17PM 34.5050 -100.3422 303° West 389 448 30,500 -2,220 Descending Albuquerque Center
01:18PM 34.5642 -100.4500 304° West 387 445 28,300 -2,160 Descending Albuquerque Center
01:19PM 34.6225 -100.5542 304° West 379 436 26,100 -2,040 Descending Albuquerque Center
01:20PM 34.6769 -100.6564 303° West 367 422 24,100 -2,220 Descending Albuquerque Center
01:21PM 34.7414 -100.7753 303° West 354 407 21,600 -2,280 Descending Albuquerque Center
01:22PM 34.7958 -100.8750 304° West 354 407 19,500 -1,920 Descending Albuquerque Center
01:23PM 34.8475 -100.9700 304° West 343 395 17,700 -1,980 Descending Albuquerque Center
01:24PM 34.8956 -101.0628 302° West 331 381 15,400 -2,640 Descending Albuquerque Center
01:25PM 34.9428 -101.1589 301° West 329 379 12,300 -2,280 Descending Albuquerque Center
01:26PM 34.9908 -101.2558 301° West 333 383 10,700 -1,500 Descending Albuquerque Center
01:27PM 35.0394 -101.3553 301° West 296 341 9,200 -1,320 Descending Albuquerque Center
01:28PM 35.0767 -101.4300 301° West 275 316 8,000 -960 Descending Albuquerque Center
01:29PM 35.1075 -101.4925 301° West 238 274 7,300 -960 Descending Albuquerque Center
01:30PM 35.1381 -101.5567 300° West 223 257 6,100 -1,080 Descending Albuquerque Center
01:31PM 35.1642 -101.6103 301° West 202 232 5,100 -840 Descending Albuquerque Center
01:32PM 35.1867 -101.6489 305° West 164 189 4,400 -780 Descending Albuquerque Center
01:33PM 35.2161 -101.6808 318° Northwest 147 169 3,600 -780 Descending Albuquerque Center
01:35PM 35.2167 -101.7000 219° Southwest  Level FlightAware Approximate